createdAt,value
2023-08-04T00:01:24.233Z,18.80
2023-08-04T00:04:27.129Z,18.95
2023-08-04T00:07:29.604Z,18.96
2023-08-04T00:10:32.346Z,19.04
2023-08-04T00:13:34.824Z,18.92
2023-08-04T00:16:38.390Z,19.13
2023-08-04T00:19:42.079Z,19.06
2023-08-04T00:22:44.892Z,19.02
2023-08-04T00:25:47.743Z,18.91
2023-08-04T00:28:50.451Z,19.14
2023-08-04T00:31:53.796Z,18.58
2023-08-04T00:34:56.878Z,18.42
2023-08-04T00:37:59.334Z,18.80
2023-08-04T00:41:02.234Z,18.81
2023-08-04T00:44:04.924Z,18.81
2023-08-04T00:47:08.304Z,18.81
2023-08-04T00:50:11.482Z,18.75
2023-08-04T00:53:15.435Z,18.74
2023-08-04T00:56:17.977Z,18.83
2023-08-04T00:59:20.997Z,18.95
2023-08-04T01:02:24.543Z,18.90
2023-08-04T01:05:45.429Z,18.71
2023-08-04T01:09:12.676Z,18.77
2023-08-04T01:12:28.906Z,18.80
2023-08-04T01:15:32.761Z,18.75
2023-08-04T01:18:35.708Z,18.50
2023-08-04T01:21:44.371Z,18.79
2023-08-04T01:24:47.567Z,18.70
2023-08-04T01:27:56.753Z,18.23
2023-08-04T01:31:01.927Z,18.30
2023-08-04T01:34:04.837Z,17.88
2023-08-04T01:37:07.702Z,17.96
2023-08-04T01:40:13.876Z,17.71
2023-08-04T01:43:16.591Z,17.61
2023-08-04T01:46:19.239Z,17.47
2023-08-04T01:49:22.126Z,17.59
2023-08-04T01:52:24.790Z,17.54
2023-08-04T01:55:27.520Z,17.51
2023-08-04T01:58:30.151Z,17.65
2023-08-04T02:01:32.998Z,17.74
2023-08-04T02:04:35.925Z,17.86
2023-08-04T02:07:38.451Z,18.01
2023-08-04T02:10:51.868Z,18.09
2023-08-04T02:13:54.779Z,18.28
2023-08-04T02:16:57.972Z,18.17
2023-08-04T02:20:01.735Z,18.11
2023-08-04T02:23:05.298Z,18.09
2023-08-04T02:26:08.515Z,18.09
2023-08-04T02:29:12.362Z,18.18
2023-08-04T02:32:15.142Z,18.21
2023-08-04T02:35:17.641Z,18.12
2023-08-04T02:38:20.547Z,18.11
2023-08-04T02:41:24.122Z,18.25
2023-08-04T02:44:27.084Z,18.25
2023-08-04T02:47:29.692Z,18.18
2023-08-04T02:50:32.527Z,18.14
2023-08-04T02:53:36.835Z,18.14
2023-08-04T02:56:39.727Z,18.12
2023-08-04T02:59:42.338Z,17.97
2023-08-04T03:02:45.186Z,17.87
2023-08-04T03:05:48.187Z,17.63
2023-08-04T03:08:51.163Z,17.73
2023-08-04T03:11:53.755Z,17.35
2023-08-04T03:14:57.836Z,17.64
2023-08-04T03:18:01.420Z,17.65
2023-08-04T03:21:04.466Z,17.46
2023-08-04T03:24:08.035Z,17.51
2023-08-04T03:27:10.818Z,17.45
2023-08-04T03:30:13.603Z,17.41
2023-08-04T03:33:16.447Z,17.28
2023-08-04T03:36:18.934Z,17.42
2023-08-04T03:39:22.793Z,17.44
2023-08-04T03:42:25.228Z,17.67
2023-08-04T03:45:28.067Z,17.63
2023-08-04T03:48:30.633Z,17.42
2023-08-04T03:51:34.448Z,17.46
2023-08-04T03:54:37.151Z,17.60
2023-08-04T03:57:39.946Z,17.87
2023-08-04T04:00:42.920Z,17.88
2023-08-04T04:03:45.992Z,18.21
2023-08-04T04:06:48.582Z,18.13
2023-08-04T04:09:51.423Z,17.71
2023-08-04T04:12:53.950Z,17.67
2023-08-04T04:15:56.737Z,17.89
2023-08-04T04:18:59.513Z,17.88
2023-08-04T04:22:02.458Z,18.19
2023-08-04T04:25:05.553Z,18.15
2023-08-04T04:28:08.386Z,18.40
2023-08-04T04:31:10.906Z,18.18
2023-08-04T04:34:13.715Z,18.09
2023-08-04T04:37:16.135Z,18.12
2023-08-04T04:40:18.988Z,17.97
2023-08-04T04:43:24.726Z,18.42
2023-08-04T04:46:27.595Z,18.61
2023-08-04T04:49:30.640Z,18.62
2023-08-04T04:52:39.321Z,18.54
2023-08-04T04:55:42.443Z,18.43
2023-08-04T04:58:45.268Z,18.62
2023-08-04T05:01:48.274Z,18.94
2023-08-04T05:04:51.272Z,19.25
2023-08-04T05:07:53.761Z,19.46
2023-08-04T05:10:56.561Z,19.51
2023-08-04T05:13:59.034Z,19.09
2023-08-04T05:17:01.877Z,19.06
2023-08-04T05:20:04.550Z,18.92
2023-08-04T05:23:07.393Z,18.95
2023-08-04T05:26:09.864Z,18.91
2023-08-04T05:29:12.841Z,18.90
2023-08-04T05:32:15.331Z,18.94
2023-08-04T05:35:18.206Z,18.81
2023-08-04T05:38:21.430Z,18.88
2023-08-04T05:41:24.195Z,18.86
2023-08-04T05:44:26.617Z,19.00
2023-08-04T05:47:29.516Z,19.11
2023-08-04T05:50:32.796Z,19.21
2023-08-04T05:53:35.697Z,19.24
2023-08-04T05:56:38.396Z,19.37
2023-08-04T05:59:41.126Z,19.46
2023-08-04T06:02:45.269Z,19.43
2023-08-04T06:05:48.606Z,19.35
2023-08-04T06:08:51.112Z,19.53
2023-08-04T06:11:54.003Z,19.59
2023-08-04T06:14:56.680Z,20.13
2023-08-04T06:17:59.561Z,20.48
2023-08-04T06:21:02.267Z,20.96
2023-08-04T06:24:05.435Z,21.76
2023-08-04T06:27:08.908Z,22.69
2023-08-04T06:30:11.894Z,22.72
2023-08-04T06:33:14.708Z,23.21
2023-08-04T06:36:20.577Z,23.71
2023-08-04T06:39:23.457Z,24.15
2023-08-04T06:42:26.483Z,24.95
2023-08-04T06:45:29.704Z,24.90
2023-08-04T06:48:32.585Z,24.35
2023-08-04T06:51:35.561Z,23.88
2023-08-04T06:54:39.396Z,24.92
2023-08-04T06:57:42.257Z,24.72
2023-08-04T07:00:46.377Z,25.12
2023-08-04T07:03:48.914Z,25.15
2023-08-04T07:06:52.684Z,25.96
2023-08-04T07:09:55.233Z,25.64
2023-08-04T07:12:58.320Z,24.52
2023-08-04T07:16:01.066Z,24.74
2023-08-04T07:19:04.139Z,24.55
2023-08-04T07:22:06.775Z,24.49
2023-08-04T07:25:09.845Z,24.73
2023-08-04T07:28:12.318Z,24.59
2023-08-04T07:31:15.273Z,26.00
2023-08-04T07:34:18.434Z,26.79
2023-08-04T07:37:21.684Z,26.04
2023-08-04T07:40:24.158Z,25.85
2023-08-04T07:43:27.331Z,25.53
2023-08-04T07:46:31.492Z,25.57
2023-08-04T07:49:34.413Z,24.83
2023-08-04T07:52:37.056Z,25.23
2023-08-04T07:55:40.763Z,25.67
2023-08-04T07:58:43.375Z,25.96
2023-08-04T08:01:46.560Z,26.09
2023-08-04T08:04:49.955Z,25.56
2023-08-04T08:07:52.489Z,25.70
2023-08-04T08:10:58.256Z,26.69
2023-08-04T08:14:00.856Z,28.09
2023-08-04T08:17:03.913Z,28.43
2023-08-04T08:20:07.424Z,28.49
2023-08-04T08:23:11.800Z,28.09
2023-08-04T08:26:14.754Z,28.06
2023-08-04T08:29:19.716Z,27.74
2023-08-04T08:32:23.894Z,28.38
2023-08-04T08:35:27.009Z,28.55
2023-08-04T08:38:29.486Z,28.35
2023-08-04T08:41:32.324Z,27.51
2023-08-04T08:44:34.894Z,28.81
2023-08-04T08:47:39.574Z,29.23
2023-08-04T08:50:45.100Z,29.07
2023-08-04T08:53:49.169Z,29.97
2023-08-04T08:56:52.414Z,29.77
2023-08-04T08:59:59.898Z,29.99
2023-08-04T09:03:04.787Z,28.34
2023-08-04T09:06:07.874Z,30.43
2023-08-04T09:09:10.372Z,30.47
2023-08-04T09:12:14.087Z,29.23
2023-08-04T09:15:16.633Z,30.02
2023-08-04T09:18:28.452Z,30.60
2023-08-04T09:21:31.027Z,30.12
2023-08-04T09:24:34.092Z,29.97
2023-08-04T09:27:42.579Z,30.21
2023-08-04T09:31:06.953Z,30.25
2023-08-04T09:34:11.368Z,30.23
2023-08-04T09:37:17.370Z,31.12
2023-08-04T09:40:21.286Z,30.83
2023-08-04T09:43:24.026Z,30.00
2023-08-04T09:46:26.560Z,30.87
2023-08-04T09:49:30.357Z,31.82
2023-08-04T09:52:32.907Z,31.02
2023-08-04T09:55:36.107Z,31.30
2023-08-04T09:58:39.891Z,30.94
2023-08-04T10:01:43.670Z,31.90
2023-08-04T10:04:50.992Z,32.00
2023-08-04T10:07:54.250Z,30.76
2023-08-04T10:10:58.209Z,30.18
2023-08-04T10:14:02.773Z,32.28
2023-08-04T10:17:06.615Z,31.06
2023-08-04T10:20:10.779Z,31.06
2023-08-04T10:23:14.154Z,31.73
2023-08-04T10:26:17.129Z,31.15
2023-08-04T10:29:21.708Z,32.00
2023-08-04T10:32:35.134Z,32.51
2023-08-04T10:36:05.438Z,31.66
2023-08-04T10:39:27.478Z,31.44
2023-08-04T10:42:32.956Z,30.72
2023-08-04T10:46:04.860Z,30.56
2023-08-04T10:49:07.964Z,30.46
2023-08-04T10:52:10.553Z,30.54
2023-08-04T10:55:14.734Z,29.31
2023-08-04T10:58:17.855Z,29.66
2023-08-04T11:01:22.795Z,29.53
2023-08-04T11:04:25.638Z,28.92
2023-08-04T11:07:28.406Z,29.46
2023-08-04T11:10:30.995Z,30.64
2023-08-04T11:13:33.866Z,31.34
2023-08-04T11:16:37.791Z,31.87
2023-08-04T11:19:42.875Z,32.51
2023-08-04T11:22:50.083Z,32.42
2023-08-04T11:25:54.375Z,32.88
2023-08-04T11:28:59.196Z,32.49
2023-08-04T11:32:02.589Z,32.13
2023-08-04T11:35:05.708Z,32.44
2023-08-04T11:38:08.757Z,31.61
2023-08-04T11:41:13.694Z,31.43
2023-08-04T11:44:17.500Z,34.29
2023-08-04T11:47:20.633Z,33.49
2023-08-04T11:50:27.804Z,33.45
2023-08-04T11:53:30.427Z,32.80
2023-08-04T11:56:39.720Z,31.27
2023-08-04T11:59:49.368Z,31.08
2023-08-04T12:02:59.370Z,31.65
2023-08-04T12:06:02.651Z,32.87
2023-08-04T12:09:05.387Z,31.92
2023-08-04T12:12:08.746Z,31.71
2023-08-04T12:15:11.596Z,32.18
2023-08-04T12:18:28.172Z,30.56
2023-08-04T12:21:30.769Z,31.34
2023-08-04T12:24:33.659Z,30.50
2023-08-04T12:27:36.739Z,30.35
2023-08-04T12:30:39.792Z,30.84
2023-08-04T12:33:42.374Z,29.80
2023-08-04T12:36:45.721Z,30.30
2023-08-04T12:39:48.539Z,29.64
2023-08-04T12:42:52.274Z,29.32
2023-08-04T12:45:54.840Z,29.48
2023-08-04T12:48:58.200Z,28.53
2023-08-04T12:52:00.753Z,29.25
2023-08-04T12:55:05.258Z,29.58
2023-08-04T12:58:07.706Z,30.28
2023-08-04T13:01:11.179Z,30.34
2023-08-04T13:04:13.748Z,29.67
2023-08-04T13:07:16.716Z,29.71
2023-08-04T13:10:19.179Z,29.88
2023-08-04T13:13:21.950Z,29.20
2023-08-04T13:16:24.458Z,29.45
2023-08-04T13:19:27.285Z,29.99
2023-08-04T13:22:29.788Z,30.07
2023-08-04T13:25:40.020Z,29.58
2023-08-04T13:28:43.607Z,30.27
2023-08-04T13:31:49.529Z,29.64
2023-08-04T13:34:52.278Z,29.54
2023-08-04T13:37:55.264Z,29.67
2023-08-04T13:40:59.017Z,29.54
2023-08-04T13:44:01.964Z,29.86
2023-08-04T13:47:04.740Z,29.89
2023-08-04T13:50:07.799Z,29.97
2023-08-04T13:53:10.811Z,30.51
2023-08-04T13:56:13.672Z,30.19
2023-08-04T13:59:16.263Z,29.55
2023-08-04T14:02:19.173Z,29.75
2023-08-04T14:05:22.049Z,30.23
2023-08-04T14:08:24.791Z,30.41
2023-08-04T14:11:27.699Z,29.92
2023-08-04T14:14:30.278Z,30.57
2023-08-04T14:17:33.144Z,30.39
2023-08-04T14:20:35.767Z,30.41
2023-08-04T14:23:38.672Z,30.62
2023-08-04T14:26:41.146Z,30.21
2023-08-04T14:29:45.707Z,29.88
2023-08-04T14:32:48.324Z,29.78
2023-08-04T14:35:51.187Z,29.38
2023-08-04T14:38:53.932Z,29.97
2023-08-04T14:41:56.795Z,30.17
2023-08-04T14:44:59.300Z,30.36
2023-08-04T14:48:02.318Z,30.12
2023-08-04T14:51:09.856Z,29.81
2023-08-04T14:54:12.679Z,28.89
2023-08-04T14:57:15.315Z,29.57
2023-08-04T15:00:18.207Z,29.95
2023-08-04T15:03:21.086Z,30.21
2023-08-04T15:06:24.052Z,30.25
2023-08-04T15:09:27.038Z,29.37
2023-08-04T15:12:29.867Z,29.69
2023-08-04T15:15:33.949Z,29.91
2023-08-04T15:18:37.386Z,29.63
2023-08-04T15:21:39.878Z,30.00
2023-08-04T15:24:45.131Z,30.15
2023-08-04T15:27:47.667Z,30.41
2023-08-04T15:30:50.615Z,30.40
2023-08-04T15:33:53.378Z,29.77
2023-08-04T15:36:56.117Z,29.92
2023-08-04T15:39:58.811Z,29.96
2023-08-04T15:43:01.705Z,29.88
2023-08-04T15:46:04.960Z,30.06
2023-08-04T15:49:07.942Z,29.90
2023-08-04T15:52:10.625Z,29.50
2023-08-04T15:55:14.009Z,29.47
2023-08-04T15:58:16.591Z,29.59
2023-08-04T16:01:19.391Z,29.52
2023-08-04T16:04:24.342Z,29.69
2023-08-04T16:07:26.911Z,29.67
2023-08-04T16:10:31.556Z,29.25
2023-08-04T16:13:34.085Z,29.03
2023-08-04T16:16:36.885Z,28.85
2023-08-04T16:19:39.484Z,28.57
2023-08-04T16:22:42.208Z,28.50
2023-08-04T16:25:44.817Z,28.36
2023-08-04T16:28:47.602Z,28.01
2023-08-04T16:31:50.317Z,27.82
2023-08-04T16:34:53.216Z,27.64
2023-08-04T16:37:55.808Z,27.19
2023-08-04T16:40:58.939Z,27.43
2023-08-04T16:44:01.531Z,26.97
2023-08-04T16:47:04.514Z,26.86
2023-08-04T16:50:07.123Z,26.98
2023-08-04T16:53:09.959Z,26.62
2023-08-04T16:56:12.509Z,26.66
2023-08-04T16:59:15.222Z,26.55
2023-08-04T17:02:17.737Z,26.52
2023-08-04T17:05:21.114Z,26.52
2023-08-04T17:08:23.787Z,26.30
2023-08-04T17:11:26.621Z,26.10
2023-08-04T17:14:29.110Z,26.25
2023-08-04T17:17:33.031Z,25.91
2023-08-04T17:20:35.447Z,25.90
2023-08-04T17:23:38.503Z,26.10
2023-08-04T17:26:41.189Z,26.17
2023-08-04T17:29:44.273Z,26.24
2023-08-04T17:32:47.959Z,26.18
2023-08-04T17:35:50.750Z,26.13
2023-08-04T17:38:53.181Z,26.21
2023-08-04T17:41:55.977Z,26.05
2023-08-04T17:44:58.344Z,26.11
2023-08-04T17:48:01.097Z,25.98
2023-08-04T17:51:03.880Z,25.81
2023-08-04T17:54:06.685Z,25.38
2023-08-04T17:57:09.101Z,25.34
2023-08-04T18:00:12.346Z,25.49
2023-08-04T18:03:14.751Z,25.53
2023-08-04T18:06:17.984Z,25.52
2023-08-04T18:09:20.454Z,25.33
2023-08-04T18:12:23.165Z,25.39
2023-08-04T18:15:26.199Z,25.30
2023-08-04T18:18:29.111Z,25.10
2023-08-04T18:21:31.564Z,25.22
2023-08-04T18:24:34.334Z,25.19
2023-08-04T18:27:37.020Z,25.25
2023-08-04T18:30:39.974Z,25.11
2023-08-04T18:33:42.650Z,25.05
2023-08-04T18:36:45.864Z,25.09
2023-08-04T18:39:48.260Z,24.86
2023-08-04T18:42:50.965Z,24.87
2023-08-04T18:45:57.263Z,24.92
2023-08-04T18:48:59.997Z,24.88
2023-08-04T18:52:02.499Z,24.76
2023-08-04T18:55:06.007Z,24.81
2023-08-04T18:58:09.691Z,24.64
2023-08-04T19:01:12.481Z,24.56
2023-08-04T19:04:14.897Z,24.56
2023-08-04T19:07:17.687Z,24.48
2023-08-04T19:10:20.162Z,24.48
2023-08-04T19:13:23.074Z,24.08
2023-08-04T19:16:25.514Z,24.14
2023-08-04T19:19:28.318Z,24.25
2023-08-04T19:22:30.732Z,24.26
2023-08-04T19:25:33.599Z,24.16
2023-08-04T19:28:36.080Z,24.00
2023-08-04T19:31:38.813Z,23.97
2023-08-04T19:34:41.450Z,23.94
2023-08-04T19:37:44.342Z,24.06
2023-08-04T19:40:54.554Z,24.21
2023-08-04T19:43:57.341Z,23.90
2023-08-04T19:46:59.752Z,23.75
2023-08-04T19:50:02.516Z,23.58
2023-08-04T19:53:05.041Z,23.64
2023-08-04T19:56:10.152Z,23.60
2023-08-04T19:59:13.288Z,23.43
2023-08-04T20:02:16.141Z,23.44
2023-08-04T20:05:21.934Z,23.49
2023-08-04T20:08:24.437Z,23.57
2023-08-04T20:11:27.300Z,23.43
2023-08-04T20:14:30.033Z,23.29
2023-08-04T20:17:34.481Z,23.39
2023-08-04T20:20:36.996Z,23.33
2023-08-04T20:23:40.201Z,23.29
2023-08-04T20:26:42.790Z,23.25
2023-08-04T20:29:45.602Z,23.04
2023-08-04T20:32:48.139Z,22.95
2023-08-04T20:35:55.831Z,22.79
2023-08-04T20:38:58.416Z,22.96
2023-08-04T20:42:01.226Z,22.90
2023-08-04T20:45:04.147Z,22.85
2023-08-04T20:48:10.207Z,22.97
2023-08-04T20:51:14.644Z,22.82
2023-08-04T20:54:17.516Z,22.87
2023-08-04T20:57:20.063Z,23.02
2023-08-04T21:00:22.874Z,23.15
2023-08-04T21:03:28.721Z,22.97
2023-08-04T21:06:31.497Z,23.01
2023-08-04T21:09:33.999Z,22.94
2023-08-04T21:12:39.170Z,23.01
2023-08-04T21:15:41.869Z,23.09
2023-08-04T21:18:44.642Z,23.05
2023-08-04T21:21:47.116Z,23.06
2023-08-04T21:24:50.383Z,22.87
2023-08-04T21:27:53.262Z,22.91
2023-08-04T21:30:56.472Z,22.92
2023-08-04T21:33:58.925Z,22.72
2023-08-04T21:37:01.698Z,22.81
2023-08-04T21:40:04.442Z,22.73
2023-08-04T21:43:07.173Z,22.82
2023-08-04T21:46:11.448Z,22.87
2023-08-04T21:49:17.897Z,22.83
2023-08-04T21:52:20.628Z,22.77
2023-08-04T21:55:23.402Z,22.79
2023-08-04T21:58:25.913Z,22.77
2023-08-04T22:01:28.860Z,22.63
2023-08-04T22:04:31.730Z,22.56
2023-08-04T22:07:34.145Z,22.81
2023-08-04T22:10:37.277Z,22.93
2023-08-04T22:13:41.684Z,22.99
2023-08-04T22:16:44.958Z,22.96
2023-08-04T22:19:47.541Z,22.99
2023-08-04T22:22:50.288Z,23.01
2023-08-04T22:25:59.936Z,22.93
2023-08-04T22:29:02.705Z,22.71
2023-08-04T22:32:05.863Z,22.85
2023-08-04T22:35:09.006Z,22.75
2023-08-04T22:38:11.478Z,22.82
2023-08-04T22:41:14.389Z,22.52
2023-08-04T22:44:16.871Z,22.43
2023-08-04T22:47:19.862Z,22.49
2023-08-04T22:50:22.385Z,22.48
2023-08-04T22:53:25.276Z,22.72
2023-08-04T22:56:28.245Z,22.76
2023-08-04T22:59:31.070Z,22.05
2023-08-04T23:02:33.574Z,21.34
2023-08-04T23:05:38.424Z,21.06
2023-08-04T23:08:40.894Z,21.02
2023-08-04T23:11:45.042Z,20.89
2023-08-04T23:14:49.088Z,20.86
2023-08-04T23:17:51.830Z,20.82
2023-08-04T23:20:54.321Z,20.65
2023-08-04T23:23:57.129Z,20.87
2023-08-04T23:26:59.600Z,20.83
2023-08-04T23:30:02.329Z,20.83
2023-08-04T23:33:05.119Z,20.77
2023-08-04T23:36:08.050Z,20.74
2023-08-04T23:39:11.599Z,20.80
2023-08-04T23:42:14.412Z,20.48
2023-08-04T23:45:16.875Z,20.45
2023-08-04T23:48:19.871Z,19.96
2023-08-04T23:51:22.515Z,18.58
2023-08-04T23:54:25.495Z,18.69
2023-08-04T23:57:27.915Z,19.22
